Time;durP1;ratioP1;P1;durP2;ratioP2;P2;SDS_P1;SDS_P2;PMS_P1;PMS_P2;Temp;Humidity;BMP_temperature;BMP_pressure;BME280_temperature;BME280_humidity;BME280_pressure;Samples;Min_cycle;Max_cycle;Signal;HPM_P1;HPM_P2
2022/06/16 00:02:20;;;;;;;17.07;10.15;;;26.30;99.90;;;;;;1799145;78;21682;-81
2022/06/16 00:04:51;;;;;;;15.93;10.90;;;26.40;99.90;;;;;;1823840;77;21784;-80
2022/06/16 00:07:23;;;;;;;12.93;9.78;;;26.40;99.90;;;;;;1835871;77;21155;-80
2022/06/16 00:09:54;;;;;;;16.32;10.53;;;26.40;99.90;;;;;;1833316;77;21141;-79
2022/06/16 00:12:32;;;;;;;17.35;10.85;;;26.50;99.90;;;;;;1781707;79;21149;-81
2022/06/16 00:15:08;;;;;;;15.72;10.40;;;26.60;99.90;;;;;;1733137;81;21214;-81
2022/06/16 00:17:39;;;;;;;18.05;11.63;;;26.60;99.90;;;;;;1803376;77;21113;-84
2022/06/16 00:20:11;;;;;;;14.58;10.72;;;26.60;99.90;;;;;;1806443;77;21789;-80
2022/06/16 00:22:43;;;;;;;14.33;11.57;;;26.60;99.90;;;;;;1818636;77;21175;-79
2022/06/16 00:25:15;;;;;;;12.20;10.68;;;26.60;99.90;;;;;;1785262;79;21168;-79
2022/06/16 00:27:46;;;;;;;15.45;10.93;;;26.60;99.90;;;;;;1771328;79;21614;-80
2022/06/16 00:30:17;;;;;;;17.05;10.48;;;26.60;99.90;;;;;;1776469;80;21147;-79
2022/06/16 00:32:48;;;;;;;16.67;10.93;;;26.60;99.90;;;;;;1822670;77;21137;-79
2022/06/16 00:35:22;;;;;;;12.18;10.48;;;26.60;99.90;;;;;;1804433;78;21272;-80
2022/06/16 00:37:53;;;;;;;18.23;11.08;;;26.70;99.90;;;;;;1816848;77;21130;-79
2022/06/16 00:40:33;;;;;;;13.93;9.03;;;26.70;99.90;;;;;;1812189;77;21166;-81
2022/06/16 00:43:00;;;;;;;13.32;8.68;;;26.70;99.90;;;;;;1803442;77;21165;-81
2022/06/16 00:45:43;;;;;;;12.80;8.85;;;26.90;99.90;;;;;;1824702;77;21103;-80
2022/06/16 00:48:13;;;;;;;12.00;8.80;;;26.90;99.90;;;;;;1818669;77;21546;-81
2022/06/16 00:50:45;;;;;;;12.13;8.08;;;27.00;99.90;;;;;;1783021;79;21196;-80
2022/06/16 00:53:17;;;;;;;12.37;8.43;;;27.00;99.90;;;;;;1783809;79;21606;-78
2022/06/16 00:55:48;;;;;;;10.53;8.10;;;27.00;99.90;;;;;;1757097;79;21227;-80
2022/06/16 00:58:21;;;;;;;12.00;10.00;;;27.10;99.90;;;;;;1780310;79;21096;-81
2022/06/16 01:00:55;;;;;;;12.20;9.27;;;27.10;99.90;;;;;;1758748;79;21178;-81
2022/06/16 01:06:08;;;;;;;12.25;8.98;;;27.30;99.90;;;;;;1811098;77;21305;-82
2022/06/16 01:08:45;;;;;;;9.93;8.10;;;27.40;99.90;;;;;;1823765;78;21198;-80
2022/06/16 01:14:02;;;;;;;9.28;7.60;;;27.40;99.90;;;;;;1756489;81;21251;-81
2022/06/16 01:16:32;;;;;;;11.40;7.92;;;27.40;99.90;;;;;;1756059;80;21654;-80
2022/06/16 01:19:06;;;;;;;12.10;7.75;;;27.40;99.90;;;;;;1746900;80;21682;-79
2022/06/16 01:21:42;;;;;;;11.93;8.10;;;27.50;99.90;;;;;;1737286;81;21239;-79
2022/06/16 01:24:15;;;;;;;13.28;8.13;;;27.50;99.90;;;;;;1765575;80;21211;-81
2022/06/16 01:26:52;;;;;;;9.63;7.30;;;27.50;99.90;;;;;;1719844;82;21162;-80
2022/06/16 01:29:28;;;;;;;12.82;7.62;;;27.60;99.90;;;;;;1738737;81;21204;-80
2022/06/16 01:32:03;;;;;;;10.32;7.45;;;27.60;99.90;;;;;;1746246;80;21176;-83
2022/06/16 01:34:36;;;;;;;11.22;8.43;;;27.70;99.90;;;;;;1780483;79;21651;-83
2022/06/16 01:37:12;;;;;;;13.57;8.80;;;27.80;99.80;;;;;;1729791;81;21174;-82
2022/06/16 01:39:46;;;;;;;14.03;8.88;;;27.90;99.80;;;;;;1711301;82;21219;-83
2022/06/16 01:42:24;;;;;;;11.75;8.60;;;28.00;99.60;;;;;;1701387;83;21178;-81
2022/06/16 01:44:58;;;;;;;9.38;7.55;;;28.00;99.40;;;;;;1753554;80;21090;-81
2022/06/16 01:47:31;;;;;;;7.65;6.83;;;28.00;99.40;;;;;;1770690;80;22522;-83
2022/06/16 01:50:13;;;;;;;8.25;6.50;;;28.10;99.00;;;;;;1783385;79;21168;-83
2022/06/16 01:53:11;;;;;;;8.60;7.28;;;28.10;98.50;;;;;;1788636;79;21274;-84
2022/06/16 01:55:44;;;;;;;10.03;8.13;;;28.20;98.60;;;;;;1781936;80;21268;-85
2022/06/16 01:58:17;;;;;;;11.90;10.60;;;28.30;98.40;;;;;;1782186;80;21233;-82
2022/06/16 02:00:52;;;;;;;12.98;9.93;;;28.30;98.70;;;;;;1751155;80;21222;-84
2022/06/16 02:03:26;;;;;;;10.98;8.33;;;28.40;98.80;;;;;;1740102;81;21190;-84
2022/06/16 02:05:59;;;;;;;9.33;7.87;;;28.60;98.60;;;;;;1723159;81;21126;-83
2022/06/16 02:08:33;;;;;;;9.10;6.37;;;28.70;98.50;;;;;;1736785;81;21283;-82
2022/06/16 02:11:07;;;;;;;7.12;5.33;;;28.80;98.30;;;;;;1769549;79;21260;-83
2022/06/16 02:13:40;;;;;;;8.38;5.28;;;29.00;97.40;;;;;;1769592;80;21169;-83
2022/06/16 02:16:14;;;;;;;6.55;5.15;;;29.10;96.90;;;;;;1787004;78;21160;-82
2022/06/16 02:18:46;;;;;;;6.97;4.60;;;29.20;96.70;;;;;;1782560;79;21259;-84
2022/06/16 02:21:20;;;;;;;8.50;4.92;;;29.30;96.40;;;;;;1746330;79;21225;-84
2022/06/16 02:23:52;;;;;;;6.37;4.55;;;29.30;96.50;;;;;;1736557;81;21123;-86
2022/06/16 02:26:25;;;;;;;7.58;5.40;;;29.30;96.50;;;;;;1797671;78;21667;-81
2022/06/16 02:28:58;;;;;;;9.05;5.12;;;29.40;96.20;;;;;;1794052;78;21229;-85
2022/06/16 02:31:32;;;;;;;7.33;5.55;;;29.40;96.10;;;;;;1752611;80;21178;-82
2022/06/16 02:34:06;;;;;;;6.00;4.45;;;29.30;96.20;;;;;;1805580;78;21068;-82
2022/06/16 02:36:39;;;;;;;7.17;4.70;;;29.30;96.40;;;;;;1811559;78;21240;-83
2022/06/16 02:39:12;;;;;;;6.95;4.50;;;29.30;96.00;;;;;;1734313;81;21183;-84
2022/06/16 02:41:44;;;;;;;8.93;5.20;;;29.30;95.80;;;;;;1818204;78;21167;-82
2022/06/16 02:44:17;;;;;;;5.12;4.50;;;29.40;95.90;;;;;;1838056;76;21161;-84
2022/06/16 02:46:51;;;;;;;7.30;4.92;;;29.50;95.70;;;;;;1842491;76;21168;-82
2022/06/16 02:49:24;;;;;;;7.33;4.72;;;29.50;95.40;;;;;;1839216;76;21153;-84
2022/06/16 02:51:58;;;;;;;5.90;4.58;;;29.50;95.30;;;;;;1860727;76;21249;-81
2022/06/16 02:54:33;;;;;;;8.55;4.60;;;29.50;95.50;;;;;;1837449;76;21613;-83
2022/06/16 02:57:03;;;;;;;6.25;4.75;;;29.60;95.60;;;;;;1837360;77;21085;-83
2022/06/16 02:59:36;;;;;;;8.15;5.10;;;29.60;95.20;;;;;;1838641;76;21177;-81
2022/06/16 03:02:11;;;;;;;7.37;5.30;;;29.60;95.40;;;;;;1844345;76;21159;-80
2022/06/16 03:04:45;;;;;;;6.15;4.95;;;29.70;95.70;;;;;;1845956;76;21222;-81
2022/06/16 03:07:16;;;;;;;6.03;4.97;;;29.70;95.80;;;;;;1862435;76;22358;-77
2022/06/16 03:09:48;;;;;;;7.67;5.37;;;29.70;95.70;;;;;;1834327;76;21099;-77
2022/06/16 03:12:19;;;;;;;6.67;5.30;;;29.80;95.70;;;;;;1816202;78;21234;-77
2022/06/16 03:14:50;;;;;;;9.88;5.40;;;29.80;95.90;;;;;;1764615;80;21283;-77
2022/06/16 03:17:21;;;;;;;6.65;5.05;;;29.90;95.70;;;;;;1763292;80;21185;-76
2022/06/16 03:19:52;;;;;;;5.47;4.67;;;29.90;95.60;;;;;;1777539;80;21702;-78
2022/06/16 03:22:23;;;;;;;8.55;4.80;;;29.90;95.50;;;;;;1754534;80;21227;-76
2022/06/16 03:24:54;;;;;;;6.80;4.67;;;29.90;95.20;;;;;;1747393;81;21181;-78
2022/06/16 03:27:24;;;;;;;7.67;4.95;;;30.00;94.90;;;;;;1746554;81;21767;-78
2022/06/16 03:29:57;;;;;;;7.78;4.65;;;30.10;94.90;;;;;;1791302;79;21244;-78
2022/06/16 03:32:28;;;;;;;6.83;5.37;;;30.20;94.00;;;;;;1804638;79;21693;-78
2022/06/16 03:34:59;;;;;;;7.97;4.40;;;30.20;94.40;;;;;;1792717;78;21155;-77
2022/06/16 03:37:29;;;;;;;8.80;4.65;;;30.30;94.20;;;;;;1807025;78;21220;-78
2022/06/16 03:40:04;;;;;;;7.53;4.47;;;30.50;94.10;;;;;;1812292;78;21174;-76
2022/06/16 03:42:35;;;;;;;9.48;4.72;;;30.60;94.00;;;;;;1802318;78;21183;-78
2022/06/16 03:45:07;;;;;;;8.48;5.05;;;30.70;93.70;;;;;;1796452;78;21197;-78
2022/06/16 03:47:38;;;;;;;9.13;4.33;;;30.80;93.40;;;;;;1801545;78;21205;-78
2022/06/16 03:50:11;;;;;;;7.22;4.70;;;30.80;93.70;;;;;;1802567;78;21191;-78
2022/06/16 03:52:42;;;;;;;6.55;4.22;;;30.80;93.10;;;;;;1796043;79;21181;-79
2022/06/16 03:55:13;;;;;;;7.58;4.08;;;30.80;92.70;;;;;;1798137;78;21150;-77
2022/06/16 03:57:50;;;;;;;7.67;4.92;;;30.90;92.90;;;;;;1801043;78;21099;-81
2022/06/16 04:00:23;;;;;;;6.85;4.35;;;30.90;93.00;;;;;;1789418;78;21241;-78
2022/06/16 04:05:27;;;;;;;7.37;4.05;;;30.90;93.10;;;;;;1760452;80;21186;-77
2022/06/16 04:07:58;;;;;;;7.40;4.58;;;31.00;92.90;;;;;;1803377;78;21103;-77
2022/06/16 04:10:30;;;;;;;5.22;4.03;;;31.10;92.40;;;;;;1794007;78;21229;-79
2022/06/16 04:13:01;;;;;;;8.53;5.03;;;31.00;92.50;;;;;;1806796;77;21234;-77
2022/06/16 04:15:32;;;;;;;7.70;4.55;;;31.00;92.70;;;;;;1811301;77;21140;-78
2022/06/16 04:18:14;;;;;;;7.65;4.47;;;31.10;92.00;;;;;;1810738;78;21242;-76
2022/06/16 04:20:49;;;;;;;7.30;4.22;;;31.20;91.80;;;;;;1810756;77;21180;-79
2022/06/16 04:23:21;;;;;;;7.12;4.22;;;31.20;91.90;;;;;;1820949;76;21235;-78
2022/06/16 04:25:52;;;;;;;7.53;4.42;;;31.20;91.50;;;;;;1811182;77;21231;-80
2022/06/16 04:28:23;;;;;;;7.60;4.03;;;31.20;91.60;;;;;;1818127;77;21101;-80
2022/06/16 04:31:04;;;;;;;7.05;4.53;;;31.20;91.20;;;;;;1819932;77;21209;-79
2022/06/16 04:33:35;;;;;;;7.17;4.20;;;31.20;91.30;;;;;;1809346;77;21084;-75
2022/06/16 04:36:07;;;;;;;5.35;4.35;;;31.10;91.40;;;;;;1809832;78;21193;-78
2022/06/16 04:38:38;;;;;;;7.67;4.40;;;31.00;91.90;;;;;;1822295;77;21508;-78
2022/06/16 04:41:09;;;;;;;9.13;4.90;;;30.90;92.10;;;;;;1817057;77;21072;-79
2022/06/16 04:43:40;;;;;;;6.60;4.25;;;31.00;92.10;;;;;;1815602;77;21216;-78
2022/06/16 04:46:12;;;;;;;6.08;4.75;;;31.10;92.40;;;;;;1815005;77;21199;-78
2022/06/16 04:48:44;;;;;;;6.30;4.85;;;31.20;92.00;;;;;;1814492;78;21555;-78
2022/06/16 04:51:16;;;;;;;7.10;4.30;;;31.30;92.20;;;;;;1813683;77;21170;-77
2022/06/16 04:53:47;;;;;;;6.90;4.80;;;31.40;91.60;;;;;;1821973;77;21145;-77
2022/06/16 04:56:18;;;;;;;9.73;4.90;;;31.40;92.00;;;;;;1819703;77;21732;-77
2022/06/16 04:58:49;;;;;;;6.30;4.70;;;31.60;92.30;;;;;;1812992;77;21657;-78
2022/06/16 05:01:20;;;;;;;8.33;4.70;;;31.70;92.40;;;;;;1828823;77;21138;-79
2022/06/16 05:03:52;;;;;;;9.53;5.03;;;31.80;91.80;;;;;;1813083;77;21183;-79
2022/06/16 05:06:23;;;;;;;7.72;4.95;;;31.80;91.60;;;;;;1812685;78;21215;-78
2022/06/16 05:08:53;;;;;;;8.28;4.78;;;31.90;91.20;;;;;;1810301;77;21240;-79
2022/06/16 05:11:27;;;;;;;8.60;4.78;;;32.00;91.30;;;;;;1809866;78;21148;-79
2022/06/16 05:14:00;;;;;;;10.25;5.33;;;32.00;91.30;;;;;;1842829;77;21079;-79
2022/06/16 05:16:31;;;;;;;8.48;5.03;;;32.00;90.70;;;;;;1822328;77;21162;-78
2022/06/16 05:19:02;;;;;;;7.80;5.58;;;32.00;90.60;;;;;;1820287;77;21126;-79
2022/06/16 05:21:35;;;;;;;7.05;5.62;;;31.90;90.80;;;;;;1823145;77;21147;-79
2022/06/16 05:24:06;;;;;;;6.30;4.90;;;32.00;91.10;;;;;;1755757;80;21152;-79
2022/06/16 05:26:37;;;;;;;5.78;4.70;;;32.00;90.60;;;;;;1758986;80;21262;-78
2022/06/16 05:29:09;;;;;;;8.20;4.95;;;32.10;90.80;;;;;;1757510;80;21104;-78
2022/06/16 05:31:40;;;;;;;6.37;4.42;;;32.20;90.50;;;;;;1833218;77;21151;-77
2022/06/16 05:34:11;;;;;;;8.30;4.55;;;32.20;90.60;;;;;;1829324;77;21206;-78
2022/06/16 05:36:46;;;;;;;7.45;4.70;;;32.20;90.10;;;;;;1823310;77;21203;-79
2022/06/16 05:39:15;;;;;;;7.70;5.15;;;32.10;90.00;;;;;;1822476;77;21505;-78
2022/06/16 05:41:52;;;;;;;6.75;5.22;;;32.10;90.40;;;;;;1831437;77;21165;-78
2022/06/16 05:44:20;;;;;;;7.30;5.40;;;32.10;90.10;;;;;;1823403;77;21125;-78
2022/06/16 05:46:54;;;;;;;8.35;4.90;;;32.00;90.60;;;;;;1826197;77;21153;-79
2022/06/16 05:49:25;;;;;;;5.92;4.78;;;32.00;89.80;;;;;;1809784;77;21167;-79
2022/06/16 05:51:56;;;;;;;6.95;4.92;;;32.00;90.10;;;;;;1826613;77;21240;-78
2022/06/16 05:54:28;;;;;;;5.85;4.58;;;32.00;90.60;;;;;;1820557;77;22211;-78
2022/06/16 05:56:59;;;;;;;7.60;4.75;;;32.00;89.60;;;;;;1816915;77;21212;-78
2022/06/16 05:59:30;;;;;;;6.33;5.12;;;32.00;89.90;;;;;;1836056;77;21129;-78
2022/06/16 06:02:01;;;;;;;8.75;5.70;;;32.00;89.50;;;;;;1822681;77;21665;-78
2022/06/16 06:04:33;;;;;;;7.65;4.95;;;32.00;89.70;;;;;;1762974;80;21602;-79
2022/06/16 06:07:04;;;;;;;8.40;4.80;;;32.00;89.30;;;;;;1748769;80;21652;-77
2022/06/16 06:17:17;;;;;;;5.45;4.40;;;32.10;90.00;;;;;;1756328;80;21547;-78
2022/06/16 06:19:48;;;;;;;6.97;5.00;;;32.00;89.00;;;;;;1756653;80;21218;-81
2022/06/16 06:22:24;;;;;;;7.58;4.65;;;32.00;89.60;;;;;;1758009;80;21224;-77
2022/06/16 06:24:57;;;;;;;7.10;4.95;;;32.00;89.40;;;;;;1820176;77;21201;-77
2022/06/16 06:27:31;;;;;;;6.58;4.22;;;32.00;89.80;;;;;;1829555;77;21211;-77
2022/06/16 06:30:05;;;;;;;7.97;4.92;;;32.00;90.10;;;;;;1827120;77;21112;-78
2022/06/16 06:32:37;;;;;;;6.12;4.67;;;32.10;89.80;;;;;;1812870;77;21628;-75
2022/06/16 06:35:08;;;;;;;8.63;5.08;;;32.20;89.60;;;;;;1755733;80;21247;-78
2022/06/16 06:37:40;;;;;;;5.33;4.78;;;32.00;88.90;;;;;;1778899;79;21693;-77
2022/06/16 06:40:13;;;;;;;8.38;4.80;;;32.10;89.10;;;;;;1782301;79;21221;-77
2022/06/16 06:42:44;;;;;;;6.90;4.87;;;32.10;89.30;;;;;;1780362;79;21221;-77
2022/06/16 06:45:15;;;;;;;6.33;4.47;;;32.10;89.50;;;;;;1757397;80;21836;-77
2022/06/16 06:47:46;;;;;;;6.80;5.05;;;32.10;88.10;;;;;;1756939;80;21167;-78
2022/06/16 06:50:20;;;;;;;7.05;4.90;;;32.10;88.50;;;;;;1765145;80;21244;-78
2022/06/16 06:53:00;;;;;;;7.25;5.45;;;32.20;88.20;;;;;;1819112;77;21178;-77
2022/06/16 06:55:31;;;;;;;7.62;5.28;;;32.20;88.80;;;;;;1814864;77;21825;-77
2022/06/16 06:58:02;;;;;;;10.38;4.80;;;32.30;88.60;;;;;;1832137;77;21172;-77
2022/06/16 07:00:33;;;;;;;6.25;4.80;;;32.20;88.90;;;;;;1820720;77;21166;-79
2022/06/16 07:03:05;;;;;;;8.18;4.35;;;32.30;88.60;;;;;;1835557;77;21086;-78
2022/06/16 07:05:35;;;;;;;7.12;4.40;;;32.30;88.30;;;;;;1828076;77;21759;-77
2022/06/16 07:08:07;;;;;;;6.40;4.37;;;32.30;87.80;;;;;;1834056;77;21188;-77
2022/06/16 07:10:40;;;;;;;7.67;4.85;;;32.30;87.50;;;;;;1821097;77;21731;-78
2022/06/16 07:13:12;;;;;;;7.60;5.42;;;32.30;86.90;;;;;;1824921;77;21184;-77
2022/06/16 07:15:43;;;;;;;7.40;4.90;;;32.40;87.50;;;;;;1827202;77;21835;-77
2022/06/16 07:18:15;;;;;;;7.10;4.85;;;32.40;86.40;;;;;;1819759;77;21141;-78
2022/06/16 07:20:47;;;;;;;7.50;4.60;;;32.50;86.30;;;;;;1821395;77;21242;-77
2022/06/16 07:23:21;;;;;;;8.23;5.12;;;32.60;85.80;;;;;;1814420;77;21178;-77
2022/06/16 07:25:51;;;;;;;6.90;4.67;;;32.60;85.80;;;;;;1821648;77;21184;-78
2022/06/16 07:28:22;;;;;;;6.85;4.80;;;32.60;85.00;;;;;;1811059;77;21654;-77
2022/06/16 07:30:53;;;;;;;7.92;4.92;;;32.60;86.30;;;;;;1813534;77;21103;-78
2022/06/16 07:33:26;;;;;;;8.53;4.87;;;32.60;85.00;;;;;;1809670;77;21168;-80
2022/06/16 07:35:57;;;;;;;10.05;5.05;;;32.60;85.60;;;;;;1828433;77;21177;-78
2022/06/16 07:38:30;;;;;;;8.00;4.72;;;32.50;84.60;;;;;;1822138;77;21150;-77
2022/06/16 07:43:35;;;;;;;6.90;4.90;;;32.60;84.10;;;;;;1803464;77;21188;-79
2022/06/16 07:46:05;;;;;;;7.70;4.30;;;32.60;84.50;;;;;;1820719;77;21185;-78
2022/06/16 07:48:37;;;;;;;7.17;4.80;;;32.60;84.50;;;;;;1787941;79;21294;-79
2022/06/16 07:51:11;;;;;;;7.72;4.62;;;32.70;84.00;;;;;;1820915;77;21200;-77
2022/06/16 07:53:42;;;;;;;6.40;4.12;;;32.80;83.00;;;;;;1820868;77;21637;-77
2022/06/16 07:56:13;;;;;;;6.55;4.05;;;32.80;81.80;;;;;;1830883;77;21089;-77
2022/06/16 07:58:44;;;;;;;5.25;3.87;;;32.80;80.40;;;;;;1819572;77;21956;-77
2022/06/16 08:01:19;;;;;;;5.85;4.12;;;32.80;80.90;;;;;;1820465;77;21915;-78
2022/06/16 08:03:54;;;;;;;7.40;4.47;;;32.90;81.60;;;;;;1819085;77;21118;-78
2022/06/16 08:06:27;;;;;;;6.03;4.33;;;32.90;81.30;;;;;;1830466;77;21239;-77
2022/06/16 08:08:56;;;;;;;5.85;4.58;;;32.90;81.90;;;;;;1779243;80;21165;-78
2022/06/16 08:14:01;;;;;;;8.95;4.40;;;32.80;82.70;;;;;;1787892;79;21242;-75
2022/06/16 08:16:33;;;;;;;7.10;4.45;;;32.80;81.80;;;;;;1748764;80;21210;-77
2022/06/16 08:19:05;;;;;;;5.53;3.83;;;32.80;81.30;;;;;;1731422;82;21232;-77
2022/06/16 08:21:37;;;;;;;6.12;4.28;;;32.80;81.20;;;;;;1794733;78;21733;-77
2022/06/16 08:24:08;;;;;;;6.03;4.08;;;32.80;81.60;;;;;;1791041;79;21139;-77
2022/06/16 08:26:39;;;;;;;6.35;4.08;;;32.80;82.00;;;;;;1790391;79;21130;-76
2022/06/16 08:29:12;;;;;;;7.03;3.72;;;32.90;81.30;;;;;;1793346;79;21190;-75
2022/06/16 08:31:44;;;;;;;7.08;4.20;;;32.90;81.10;;;;;;1797616;79;21238;-76
2022/06/16 08:34:15;;;;;;;6.12;4.75;;;32.90;81.30;;;;;;1804054;78;21696;-77
2022/06/16 08:36:46;;;;;;;7.15;4.28;;;32.90;80.90;;;;;;1793210;79;21169;-76
2022/06/16 08:39:18;;;;;;;6.33;3.90;;;32.90;81.30;;;;;;1758490;80;21229;-77
2022/06/16 08:41:51;;;;;;;7.50;4.58;;;33.00;80.60;;;;;;1758641;81;21174;-79
2022/06/16 08:44:25;;;;;;;6.45;4.17;;;33.00;81.30;;;;;;1758928;80;21650;-75
2022/06/16 08:46:59;;;;;;;6.47;4.17;;;33.00;80.70;;;;;;1740813;80;21293;-79
2022/06/16 08:49:32;;;;;;;6.17;3.70;;;33.10;80.50;;;;;;1710880;82;21159;-79
2022/06/16 08:52:05;;;;;;;8.08;3.80;;;33.10;78.90;;;;;;1798754;79;21225;-77
2022/06/16 08:54:39;;;;;;;4.83;3.33;;;33.10;79.90;;;;;;1791731;79;21224;-78
2022/06/16 08:57:13;;;;;;;4.58;3.75;;;33.10;78.10;;;;;;1791647;79;21084;-78
2022/06/16 08:59:47;;;;;;;5.20;3.75;;;33.10;78.90;;;;;;1809022;78;21170;-78
2022/06/16 09:02:20;;;;;;;6.03;4.65;;;33.00;80.60;;;;;;1803361;78;21871;-78
2022/06/16 09:04:53;;;;;;;5.45;3.92;;;33.00;80.50;;;;;;1769972;80;21183;-78
2022/06/16 09:07:27;;;;;;;6.25;4.40;;;33.00;80.80;;;;;;1809234;78;21226;-78
2022/06/16 09:12:33;;;;;;;6.62;4.25;;;33.00;80.60;;;;;;1783755;79;21179;-79
2022/06/16 09:15:20;;;;;;;7.85;3.83;;;33.00;80.60;;;;;;1789506;79;21207;-77
2022/06/16 09:17:42;;;;;;;5.40;3.55;;;33.00;79.50;;;;;;1792251;79;21789;-78
2022/06/16 09:20:18;;;;;;;7.35;3.60;;;33.00;78.20;;;;;;1752729;80;21195;-78
2022/06/16 09:22:51;;;;;;;5.53;3.00;;;33.00;76.90;;;;;;1725386;82;21170;-78
2022/06/16 09:25:23;;;;;;;5.30;3.00;;;32.90;77.80;;;;;;1776324;79;21591;-80
2022/06/16 09:27:56;;;;;;;4.00;3.00;;;32.90;78.30;;;;;;1753652;80;21495;-78
2022/06/16 09:30:30;;;;;;;4.92;2.92;;;32.80;77.70;;;;;;1796850;78;21091;-79
2022/06/16 09:33:03;;;;;;;6.67;3.55;;;32.80;78.50;;;;;;1765172;80;21600;-78
2022/06/16 09:35:37;;;;;;;5.83;3.02;;;32.70;79.20;;;;;;1799294;78;21637;-81
2022/06/16 09:38:09;;;;;;;4.75;3.20;;;32.70;79.20;;;;;;1731151;80;21115;-80
2022/06/16 09:40:42;;;;;;;3.72;2.98;;;32.70;79.40;;;;;;1806903;78;21092;-81
2022/06/16 09:43:30;;;;;;;5.42;3.27;;;32.60;77.90;;;;;;1783996;79;21162;-83
2022/06/16 09:46:07;;;;;;;3.60;2.77;;;32.60;78.50;;;;;;1756626;80;21264;-81
2022/06/16 09:48:40;;;;;;;5.20;2.95;;;32.60;77.90;;;;;;1794112;78;21273;-81
2022/06/16 09:51:12;;;;;;;4.58;2.75;;;32.60;76.70;;;;;;1796806;79;21147;-80
2022/06/16 09:53:46;;;;;;;4.42;2.75;;;32.60;76.10;;;;;;1737823;81;21617;-80
2022/06/16 09:56:20;;;;;;;3.70;2.62;;;32.60;77.50;;;;;;1781446;79;21623;-80
2022/06/16 09:58:54;;;;;;;4.45;2.67;;;32.50;76.70;;;;;;1751763;80;21934;-80
2022/06/16 10:01:27;;;;;;;6.20;3.12;;;32.50;77.20;;;;;;1750973;80;21222;-80
2022/06/16 10:04:01;;;;;;;4.92;3.00;;;32.50;77.80;;;;;;1762706;80;21758;-79
2022/06/16 10:06:35;;;;;;;5.12;3.30;;;32.40;78.40;;;;;;1729084;82;21203;-80
2022/06/16 10:09:08;;;;;;;5.35;2.87;;;32.40;79.70;;;;;;1741007;80;21611;-80
2022/06/16 10:11:42;;;;;;;5.70;2.90;;;32.40;78.50;;;;;;1755366;80;21167;-79
2022/06/16 10:14:15;;;;;;;5.80;3.75;;;32.40;79.00;;;;;;1734208;82;21806;-79
2022/06/16 10:16:48;;;;;;;14.45;9.25;;;32.30;78.90;;;;;;1745102;79;21141;-78
2022/06/16 10:19:21;;;;;;;24.85;4.90;;;32.30;79.30;;;;;;1759636;78;21114;-80
2022/06/16 10:21:52;;;;;;;8.88;3.72;;;32.30;81.10;;;;;;1791119;77;21244;-81
2022/06/16 10:24:26;;;;;;;11.35;3.02;;;31.90;82.90;;;;;;1768490;78;21393;-80
2022/06/16 10:26:59;;;;;;;27.70;3.85;;;31.30;84.30;;;;;;1792406;77;21139;-79
2022/06/16 10:29:33;;;;;;;6.75;2.50;;;30.70;85.30;;;;;;1798339;78;21129;-78
2022/06/16 10:32:06;;;;;;;4.62;1.92;;;30.00;88.20;;;;;;1791167;78;21177;-79
2022/06/16 10:34:40;;;;;;;4.70;2.08;;;29.20;90.60;;;;;;1816845;78;21221;-80
2022/06/16 10:37:14;;;;;;;13.28;2.67;;;28.80;91.70;;;;;;1834976;78;21621;-80
2022/06/16 10:39:46;;;;;;;5.80;2.10;;;28.40;92.30;;;;;;1775648;79;21199;-80
2022/06/16 10:42:20;;;;;;;6.03;2.20;;;28.20;92.90;;;;;;1746520;80;21222;-79
2022/06/16 10:44:53;;;;;;;6.90;1.70;;;28.00;93.20;;;;;;1750265;81;21203;-81
2022/06/16 10:47:26;;;;;;;3.67;1.80;;;28.00;92.60;;;;;;1775314;79;21099;-78
2022/06/16 10:49:58;;;;;;;6.35;1.55;;;27.90;92.40;;;;;;1789913;79;21970;-80
2022/06/16 10:52:32;;;;;;;6.33;1.72;;;27.90;92.50;;;;;;1755524;80;21170;-79
2022/06/16 10:55:06;;;;;;;6.45;1.70;;;27.90;92.30;;;;;;1727893;82;21175;-80
2022/06/16 10:57:39;;;;;;;4.42;1.45;;;28.00;92.40;;;;;;1787970;79;21635;-80
2022/06/16 11:00:12;;;;;;;5.47;1.32;;;28.10;92.20;;;;;;1818564;79;21203;-80
2022/06/16 11:02:45;;;;;;;5.00;2.00;;;28.10;91.90;;;;;;1812723;79;21144;-80
2022/06/16 11:05:18;;;;;;;3.67;1.62;;;28.10;91.70;;;;;;1768322;79;21680;-80
2022/06/16 11:07:52;;;;;;;3.90;1.87;;;28.10;91.60;;;;;;1793930;79;21284;-80
2022/06/16 11:10:25;;;;;;;3.98;1.92;;;28.10;91.90;;;;;;1791082;79;21157;-80
2022/06/16 11:12:57;;;;;;;4.95;2.20;;;28.10;92.10;;;;;;1803459;78;21611;-80
2022/06/16 11:15:30;;;;;;;6.97;2.12;;;28.00;92.10;;;;;;1797827;79;21105;-81
2022/06/16 11:18:03;;;;;;;4.78;2.00;;;28.00;92.20;;;;;;1790178;79;21174;-81
2022/06/16 11:20:38;;;;;;;3.77;2.08;;;28.00;92.40;;;;;;1794145;79;21252;-80
2022/06/16 11:23:11;;;;;;;3.92;2.05;;;27.90;92.00;;;;;;1787113;79;21159;-80
2022/06/16 11:25:41;;;;;;;5.25;2.17;;;27.90;92.20;;;;;;1797454;79;21249;-80
2022/06/16 11:28:13;;;;;;;6.92;2.95;;;28.00;92.30;;;;;;1787752;79;21126;-80
2022/06/16 11:30:50;;;;;;;5.80;2.65;;;28.00;92.40;;;;;;1797336;79;21182;-80
2022/06/16 11:34:06;;;;;;;5.92;2.62;;;28.00;92.00;;;;;;1790078;79;21100;-78
2022/06/16 11:35:57;;;;;;;6.58;3.40;;;28.00;92.20;;;;;;1778416;79;21836;-80
2022/06/16 11:38:30;;;;;;;7.70;3.92;;;28.00;92.50;;;;;;1796923;79;21594;-80
2022/06/16 11:41:03;;;;;;;5.10;3.20;;;28.10;92.80;;;;;;1794132;79;21151;-81
2022/06/16 11:43:37;;;;;;;7.60;3.60;;;28.10;93.20;;;;;;1804285;78;21256;-79
2022/06/16 11:46:11;;;;;;;5.92;2.70;;;28.10;93.60;;;;;;1795802;78;21602;-78
2022/06/16 11:48:45;;;;;;;5.67;3.00;;;28.10;93.20;;;;;;1787187;78;21185;-79
2022/06/16 11:51:19;;;;;;;3.62;2.47;;;28.10;93.80;;;;;;1790573;78;21519;-81
2022/06/16 11:53:54;;;;;;;5.55;2.30;;;28.10;94.00;;;;;;1791879;79;21508;-79
2022/06/16 11:56:26;;;;;;;5.25;2.15;;;28.00;93.70;;;;;;1794593;79;21158;-79
2022/06/16 11:58:59;;;;;;;4.72;1.67;;;27.90;93.40;;;;;;1801540;79;21239;-79
2022/06/16 12:01:38;;;;;;;8.28;1.27;;;27.80;92.70;;;;;;1799093;79;21146;-80
2022/06/16 12:04:09;;;;;;;3.92;1.57;;;27.80;92.00;;;;;;1787444;79;21170;-79
2022/06/16 12:06:59;;;;;;;5.03;1.20;;;27.70;91.50;;;;;;1782775;79;21155;-79
2022/06/16 12:09:34;;;;;;;4.92;1.62;;;27.60;92.10;;;;;;1790143;79;21190;-80
2022/06/16 12:12:11;;;;;;;2.95;1.50;;;27.50;93.60;;;;;;1792583;78;21083;-80
2022/06/16 12:14:47;;;;;;;4.37;1.80;;;27.40;93.70;;;;;;1791509;78;21240;-79
2022/06/16 12:17:23;;;;;;;5.00;1.77;;;27.30;94.60;;;;;;1808060;77;21140;-79
2022/06/16 12:19:59;;;;;;;4.50;2.17;;;27.30;95.20;;;;;;1829047;77;21608;-79
2022/06/16 12:22:35;;;;;;;3.72;1.98;;;27.30;95.40;;;;;;1812796;77;21413;-80
2022/06/16 12:25:09;;;;;;;5.45;1.70;;;27.30;95.40;;;;;;1819616;77;21097;-79
2022/06/16 12:27:43;;;;;;;7.62;2.60;;;27.40;95.40;;;;;;1813421;77;21208;-80
2022/06/16 12:30:16;;;;;;;5.08;2.33;;;27.50;96.00;;;;;;1816800;77;22175;-80
2022/06/16 12:32:50;;;;;;;3.40;2.22;;;27.50;95.40;;;;;;1820718;77;21228;-78
2022/06/16 12:35:25;;;;;;;4.60;2.08;;;27.60;95.60;;;;;;1827561;77;21115;-77
2022/06/16 12:38:14;;;;;;;7.00;2.75;;;27.50;95.90;;;;;;1826332;77;21697;-80
2022/06/16 12:40:42;;;;;;;5.70;2.65;;;27.40;96.80;;;;;;1776861;79;21162;-80
2022/06/16 12:43:20;;;;;;;6.47;2.52;;;27.30;97.30;;;;;;1770719;81;21117;-78
2022/06/16 12:45:57;;;;;;;7.42;3.00;;;27.30;97.50;;;;;;1765623;80;21102;-80
2022/06/16 12:48:48;;;;;;;5.75;3.12;;;27.30;98.10;;;;;;1770403;79;21167;-81
2022/06/16 12:51:22;;;;;;;8.75;3.10;;;27.20;98.40;;;;;;1782899;80;21146;-79
2022/06/16 12:53:58;;;;;;;4.58;3.33;;;27.20;98.70;;;;;;1784828;79;21128;-80
2022/06/16 12:56:31;;;;;;;10.00;3.53;;;27.10;98.50;;;;;;1783012;79;21158;-81
2022/06/16 12:59:07;;;;;;;7.37;3.70;;;27.00;98.80;;;;;;1791701;79;21210;-80
2022/06/16 13:01:39;;;;;;;6.03;3.70;;;26.90;99.00;;;;;;1782641;79;21142;-80
2022/06/16 13:04:13;;;;;;;7.42;3.60;;;26.90;99.00;;;;;;1785032;80;21229;-79
2022/06/16 13:06:49;;;;;;;9.15;4.55;;;26.90;99.40;;;;;;1760065;80;21658;-79
2022/06/16 13:09:20;;;;;;;6.90;3.60;;;26.90;99.50;;;;;;1819809;78;21226;-80
2022/06/16 13:11:53;;;;;;;6.62;4.10;;;26.90;99.60;;;;;;1793197;79;21257;-79
2022/06/16 13:14:26;;;;;;;6.65;3.98;;;26.80;99.70;;;;;;1762606;81;21621;-79
2022/06/16 13:17:02;;;;;;;9.43;4.42;;;26.80;99.90;;;;;;1768997;80;21098;-80
2022/06/16 13:19:36;;;;;;;6.55;3.87;;;26.80;99.90;;;;;;1758345;80;21240;-79
2022/06/16 13:22:09;;;;;;;9.20;4.25;;;26.80;99.90;;;;;;1773594;79;21685;-80
2022/06/16 13:24:45;;;;;;;7.95;3.90;;;26.90;99.90;;;;;;1797117;78;21150;-80
2022/06/16 13:27:20;;;;;;;7.47;3.70;;;26.90;99.90;;;;;;1796482;78;21161;-80
2022/06/16 13:29:57;;;;;;;6.85;4.10;;;26.90;99.90;;;;;;1804912;78;21170;-80
2022/06/16 13:32:30;;;;;;;6.50;3.58;;;26.90;99.90;;;;;;1808229;78;21190;-79
2022/06/16 13:35:05;;;;;;;5.50;3.55;;;26.90;99.90;;;;;;1796051;78;21166;-80
2022/06/16 13:37:49;;;;;;;;;;;;;;;;;;;;;
2022/06/16 13:40:14;;;;;;;5.83;3.40;;;27.00;99.90;;;;;;1775093;80;21177;-78